Time;durP1;ratioP1;P1;durP2;ratioP2;P2;SDS_P1;SDS_P2;PMS_P1;PMS_P2;Temp;Humidity;BMP_temperature;BMP_pressure;BME280_temperature;BME280_humidity;BME280_pressure;Samples;Min_cycle;Max_cycle;Signal;HPM_P1;HPM_P2
2023/12/30 00:00:22;;;;;;;0.88;0.80;;;11.20;99.90;;;11.43;83.83;100365.50;4861459;28;24526;-65
2023/12/30 00:02:44;;;;;;;1.50;1.00;;;11.20;99.90;;;11.39;84.99;100367.53;4856873;28;24435;-65
2023/12/30 00:05:07;;;;;;;1.02;0.90;;;11.20;99.90;;;11.40;85.13;100358.75;4840645;28;24517;-65
2023/12/30 00:07:29;;;;;;;1.30;0.90;;;11.20;99.90;;;11.32;85.82;100368.13;4857973;28;24887;-66
2023/12/30 00:09:51;;;;;;;2.70;1.20;;;11.10;99.90;;;11.35;85.79;100380.97;4853621;28;24435;-65
2023/12/30 00:12:13;;;;;;;1.30;0.80;;;11.10;99.90;;;11.41;85.29;100389.16;4846475;28;24439;-64
2023/12/30 00:14:35;;;;;;;1.60;0.90;;;11.10;99.90;;;11.44;84.28;100390.66;4874314;28;25071;-63
2023/12/30 00:16:56;;;;;;;1.40;0.90;;;11.20;99.90;;;11.44;84.54;100396.72;4853841;28;24523;-64
2023/12/30 00:19:19;;;;;;;1.02;1.00;;;11.20;99.90;;;11.42;84.36;100401.25;4873894;28;24428;-64
2023/12/30 00:21:41;;;;;;;2.60;1.00;;;11.20;99.90;;;11.44;85.25;100406.34;4847563;28;24882;-64
2023/12/30 00:24:03;;;;;;;1.75;0.90;;;11.20;99.90;;;11.45;85.11;100413.25;4854849;28;24525;-65
2023/12/30 00:26:26;;;;;;;3.28;1.00;;;11.20;99.90;;;11.48;83.96;100405.16;4836177;28;24479;-65
2023/12/30 00:28:49;;;;;;;1.77;0.95;;;11.20;99.90;;;11.47;83.24;100413.94;4853699;28;24440;-64
2023/12/30 00:31:23;;;;;;;1.10;0.80;;;11.20;99.90;;;11.50;81.52;100404.09;4867209;28;24438;-65
2023/12/30 00:33:45;;;;;;;0.82;0.82;;;11.30;99.90;;;11.53;81.49;100405.63;4868455;28;24431;-65
2023/12/30 00:36:08;;;;;;;0.80;0.80;;;11.30;99.90;;;11.56;80.46;100408.00;4854316;28;24832;-65
2023/12/30 00:38:29;;;;;;;0.70;0.70;;;11.30;99.90;;;11.59;80.69;100411.19;4861095;28;24522;-65
2023/12/30 00:40:51;;;;;;;1.40;0.90;;;11.30;99.90;;;11.60;80.51;100414.66;4854420;28;24930;-65
2023/12/30 00:43:13;;;;;;;0.90;0.60;;;11.30;99.90;;;11.62;80.47;100415.34;4852872;28;24520;-63
2023/12/30 00:45:35;;;;;;;1.30;0.88;;;11.30;99.90;;;11.66;80.58;100416.78;4872004;28;24513;-65
2023/12/30 00:47:57;;;;;;;0.80;0.80;;;11.40;99.90;;;11.66;80.55;100416.78;4870136;28;24448;-65
2023/12/30 00:50:19;;;;;;;2.70;0.90;;;11.40;99.90;;;11.64;81.12;100411.69;4844209;28;24526;-65
2023/12/30 00:52:41;;;;;;;1.23;0.90;;;11.40;99.90;;;11.66;80.55;100422.00;4839840;28;24547;-66
2023/12/30 00:55:03;;;;;;;1.50;0.80;;;11.40;99.90;;;11.59;81.72;100426.03;4864192;28;24455;-65
2023/12/30 00:57:25;;;;;;;0.90;0.90;;;11.40;99.90;;;11.54;81.90;100429.00;4869006;28;24455;-64
2023/12/30 00:59:47;;;;;;;3.70;0.90;;;11.40;99.90;;;11.49;81.63;100427.72;4822061;28;20918;-66
2023/12/30 01:02:09;;;;;;;1.30;0.77;;;11.30;99.90;;;11.46;82.05;100431.41;4865639;28;24563;-64
2023/12/30 01:04:31;;;;;;;0.90;0.80;;;11.20;99.90;;;11.44;82.82;100425.47;4871081;28;24527;-64
2023/12/30 01:06:54;;;;;;;0.70;0.70;;;11.20;99.90;;;11.44;81.76;100427.25;4856808;28;24946;-64
2023/12/30 01:09:16;;;;;;;0.90;0.90;;;11.20;99.90;;;11.42;82.58;100432.59;4847026;28;24432;-64
2023/12/30 01:11:38;;;;;;;2.70;0.60;;;11.20;99.90;;;11.41;82.82;100432.72;4864374;28;24521;-65
2023/12/30 01:14:00;;;;;;;1.90;0.90;;;11.20;99.90;;;11.38;82.13;100428.56;4863417;28;24501;-64
2023/12/30 01:16:22;;;;;;;1.30;0.70;;;11.10;99.90;;;11.38;81.57;100435.56;4837416;28;24496;-63
2023/12/30 01:18:44;;;;;;;1.60;0.60;;;11.20;99.90;;;11.36;81.31;100432.25;4867930;28;24466;-64
2023/12/30 01:21:06;;;;;;;1.10;0.70;;;11.10;99.90;;;11.35;82.63;100441.84;4846822;28;24609;-65
2023/12/30 01:23:28;;;;;;;3.53;0.80;;;11.10;99.90;;;11.35;82.30;100441.06;4866843;28;24462;-65
2023/12/30 01:25:50;;;;;;;0.90;0.70;;;11.10;99.90;;;11.34;82.47;100439.38;4852705;28;25048;-64
2023/12/30 01:28:12;;;;;;;1.10;0.70;;;11.10;99.90;;;11.32;82.65;100436.91;4840423;28;24494;-65
2023/12/30 01:30:36;;;;;;;1.50;0.73;;;11.10;99.90;;;11.28;82.40;100435.47;4837869;28;24520;-64
2023/12/30 01:32:59;;;;;;;0.70;0.70;;;11.10;99.90;;;11.31;82.84;100430.00;4864520;28;24993;-64
2023/12/30 01:35:21;;;;;;;2.08;1.00;;;11.10;99.90;;;11.30;82.46;100435.34;4856756;28;24546;-64
2023/12/30 01:37:43;;;;;;;1.52;0.70;;;11.10;99.90;;;11.30;83.26;100438.78;4857543;28;24430;-65
2023/12/30 01:40:05;;;;;;;0.70;0.60;;;11.10;99.90;;;11.24;82.85;100439.28;4857853;28;24965;-64
2023/12/30 01:42:27;;;;;;;0.70;0.70;;;11.10;99.90;;;11.21;83.54;100428.22;4862367;28;24515;-65
2023/12/30 01:44:49;;;;;;;1.10;0.70;;;11.10;99.90;;;11.12;83.05;100434.97;4856414;28;24948;-65
2023/12/30 01:47:11;;;;;;;1.70;0.60;;;11.00;99.90;;;11.02;84.25;100433.19;4871658;28;24486;-65
2023/12/30 01:49:34;;;;;;;1.90;0.80;;;10.90;99.90;;;10.95;84.41;100438.06;4857130;28;24907;-65
2023/12/30 01:51:56;;;;;;;0.80;0.80;;;10.80;99.90;;;10.92;84.48;100443.53;4856488;28;20748;-65
2023/12/30 01:54:20;;;;;;;1.10;0.60;;;10.80;99.90;;;10.88;84.89;100447.31;4839176;28;24474;-65
2023/12/30 01:56:43;;;;;;;1.03;0.80;;;10.70;99.90;;;10.79;84.80;100443.63;4851668;28;24545;-64
2023/12/30 01:59:05;;;;;;;0.90;0.80;;;10.70;99.90;;;10.80;85.13;100460.09;4845945;28;24502;-63
2023/12/30 02:01:27;;;;;;;1.90;0.80;;;10.60;99.90;;;10.78;85.77;100468.03;4856334;28;24524;-64
2023/12/30 02:03:50;;;;;;;1.60;0.90;;;10.60;99.90;;;10.86;85.32;100468.28;4853674;28;24440;-65
2023/12/30 02:06:12;;;;;;;0.70;0.70;;;10.60;99.90;;;10.89;85.58;100475.06;4843799;28;24479;-65
2023/12/30 02:08:34;;;;;;;1.30;0.60;;;10.70;99.90;;;10.93;85.91;100477.34;4864239;28;24451;-65
2023/12/30 02:10:57;;;;;;;1.52;0.80;;;10.70;99.90;;;10.99;85.61;100475.22;4855065;28;24459;-64
2023/12/30 02:13:19;;;;;;;1.10;1.00;;;10.80;99.90;;;11.04;85.06;100478.28;4831069;28;24951;-65
2023/12/30 02:15:41;;;;;;;1.77;0.80;;;10.80;99.90;;;11.09;84.90;100478.78;4874556;28;24888;-65
2023/12/30 02:18:03;;;;;;;1.20;0.80;;;10.80;99.90;;;11.12;84.72;100486.38;4863694;28;24533;-65
2023/12/30 02:20:25;;;;;;;1.00;0.90;;;10.80;99.90;;;11.14;85.34;100489.72;4838689;28;24428;-66
2023/12/30 02:22:48;;;;;;;1.20;0.80;;;10.90;99.90;;;11.14;84.79;100487.09;4859165;28;24996;-66
2023/12/30 02:25:11;;;;;;;1.20;0.90;;;10.90;99.90;;;11.14;85.01;100480.09;4872363;28;24609;-65
2023/12/30 02:27:33;;;;;;;0.90;0.90;;;10.90;99.90;;;11.17;85.05;100492.06;4844293;28;24519;-64
2023/12/30 02:29:55;;;;;;;1.70;0.90;;;10.90;99.90;;;11.17;85.64;100500.75;4857608;28;24829;-66
2023/12/30 02:32:17;;;;;;;2.70;0.90;;;10.90;99.90;;;11.18;85.55;100496.38;4868576;28;24480;-66
2023/12/30 02:34:39;;;;;;;1.50;1.00;;;10.90;99.90;;;11.15;86.00;100480.91;4856219;28;24476;-65
2023/12/30 02:37:01;;;;;;;0.98;0.98;;;10.90;99.90;;;11.14;86.30;100484.50;4856393;28;24957;-65
2023/12/30 02:39:23;;;;;;;0.98;0.98;;;11.00;99.90;;;11.13;85.43;100472.38;4844744;28;24811;-65
2023/12/30 02:41:45;;;;;;;1.10;1.00;;;11.00;99.90;;;11.04;86.04;100479.13;4869532;28;24435;-65
2023/12/30 02:44:08;;;;;;;1.75;1.00;;;10.90;99.90;;;10.98;85.92;100468.31;4854843;28;24434;-65
2023/12/30 02:46:30;;;;;;;1.63;1.10;;;10.80;99.90;;;10.96;85.75;100478.88;4815244;28;20847;-65
2023/12/30 02:48:53;;;;;;;1.05;1.00;;;10.80;99.90;;;10.93;85.30;100469.50;4850435;28;24432;-65
2023/12/30 02:51:16;;;;;;;0.80;0.80;;;10.70;99.90;;;10.97;85.14;100466.66;4874638;28;24441;-66
2023/12/30 02:53:38;;;;;;;0.90;0.80;;;10.80;99.90;;;11.00;84.52;100476.88;4842092;28;25104;-65
2023/12/30 02:55:59;;;;;;;1.80;1.00;;;10.80;99.90;;;10.98;84.24;100474.38;4858915;28;20883;-64
2023/12/30 02:58:22;;;;;;;0.90;0.90;;;10.80;99.90;;;11.00;84.56;100477.69;4867823;28;24427;-65
2023/12/30 03:00:44;;;;;;;1.10;1.00;;;10.80;99.90;;;11.01;84.28;100483.75;4863451;28;25007;-65
2023/12/30 03:03:06;;;;;;;1.10;0.90;;;10.80;99.90;;;11.00;84.21;100480.31;4872695;28;24523;-65
2023/12/30 03:05:27;;;;;;;0.90;0.90;;;10.80;99.90;;;11.01;84.26;100484.56;4855187;28;24438;-65
2023/12/30 03:07:50;;;;;;;1.20;1.10;;;10.80;99.90;;;10.98;84.40;100478.75;4854607;28;24468;-65
2023/12/30 03:10:12;;;;;;;1.00;1.00;;;10.80;99.90;;;11.01;84.60;100484.56;4844253;28;24513;-64
2023/12/30 03:12:34;;;;;;;2.08;1.00;;;10.80;99.90;;;11.03;84.67;100489.69;4864933;28;24477;-65
2023/12/30 03:14:56;;;;;;;1.10;1.00;;;10.80;99.90;;;10.98;84.15;100483.97;4847011;28;24523;-65
2023/12/30 03:17:18;;;;;;;1.50;1.17;;;10.80;99.90;;;11.00;84.23;100487.31;4863084;28;24876;-65
2023/12/30 03:19:41;;;;;;;1.45;1.20;;;10.80;99.90;;;11.03;84.25;100493.13;4850105;28;24509;-65
2023/12/30 03:22:03;;;;;;;1.05;1.00;;;10.80;99.90;;;10.97;84.59;100498.00;4867057;28;24434;-65
2023/12/30 03:24:25;;;;;;;2.70;1.00;;;10.80;99.90;;;10.97;84.57;100492.78;4873474;28;24523;-65
2023/12/30 03:26:46;;;;;;;1.13;1.00;;;10.80;99.90;;;10.96;83.79;100491.94;4870457;28;24487;-65
2023/12/30 03:29:08;;;;;;;1.20;0.80;;;10.80;99.90;;;10.89;83.68;100494.19;4864506;28;24519;-65
2023/12/30 03:31:30;;;;;;;2.00;0.90;;;10.70;99.90;;;10.90;82.58;100490.59;4838257;28;24451;-64
2023/12/30 03:33:53;;;;;;;0.85;0.85;;;10.70;99.90;;;10.92;82.96;100487.91;4870975;28;25050;-66
2023/12/30 03:36:15;;;;;;;1.10;1.00;;;10.70;99.90;;;10.94;82.21;100484.19;4852437;28;24514;-65
2023/12/30 03:38:37;;;;;;;0.80;0.80;;;10.70;99.90;;;10.99;82.61;100486.47;4869433;28;24435;-65
2023/12/30 03:40:59;;;;;;;1.00;0.80;;;10.70;99.90;;;10.99;82.44;100476.03;4854256;28;24430;-66
2023/12/30 03:43:21;;;;;;;1.15;0.80;;;10.80;99.90;;;10.99;82.32;100470.00;4867028;28;24522;-66
2023/12/30 03:45:43;;;;;;;0.80;0.80;;;10.70;99.90;;;11.01;81.56;100462.88;4853792;28;24906;-64
2023/12/30 03:48:06;;;;;;;1.85;0.90;;;10.80;99.90;;;11.02;81.29;100461.91;4864673;28;25199;-65
2023/12/30 03:50:28;;;;;;;1.38;0.90;;;10.80;99.90;;;11.00;81.78;100471.66;4848927;28;24435;-66
2023/12/30 03:52:51;;;;;;;1.95;0.80;;;10.80;99.90;;;10.97;82.34;100467.47;4859424;28;24547;-65
2023/12/30 03:55:13;;;;;;;1.05;0.93;;;10.80;99.90;;;10.96;82.55;100480.66;4862235;28;24519;-65
2023/12/30 03:57:35;;;;;;;1.42;1.00;;;10.80;99.90;;;10.94;83.43;100471.16;4873305;28;24523;-63
2023/12/30 03:59:57;;;;;;;2.72;1.00;;;10.80;99.90;;;10.89;84.55;100481.13;4865421;28;24424;-64
2023/12/30 04:02:21;;;;;;;2.78;0.90;;;10.70;99.90;;;10.90;85.07;100477.56;4851795;28;24542;-65
2023/12/30 04:04:43;;;;;;;1.20;0.80;;;10.80;99.90;;;10.92;84.42;100488.72;4868586;28;24466;-63
2023/12/30 04:07:05;;;;;;;0.80;0.80;;;10.80;99.90;;;10.90;85.12;100488.00;4862518;28;24849;-65
2023/12/30 04:09:27;;;;;;;1.30;1.00;;;10.70;99.90;;;10.91;84.83;100484.44;4865178;28;24432;-64
2023/12/30 04:11:49;;;;;;;1.30;1.00;;;10.70;99.90;;;10.91;85.32;100483.63;4859838;28;24443;-64
2023/12/30 04:14:11;;;;;;;1.13;1.00;;;10.70;99.90;;;10.90;85.55;100484.56;4873142;28;24977;-64
2023/12/30 04:16:33;;;;;;;1.08;1.08;;;10.70;99.90;;;10.93;85.91;100485.16;4873474;28;24456;-65
2023/12/30 04:18:55;;;;;;;1.10;0.90;;;10.70;99.90;;;10.94;85.85;100496.44;4856659;28;25014;-65
2023/12/30 04:21:17;;;;;;;1.30;0.90;;;10.70;99.90;;;10.99;85.16;100488.28;4868461;28;24546;-65
2023/12/30 04:23:39;;;;;;;1.48;1.10;;;10.80;99.90;;;10.98;85.64;100494.44;4873748;28;24436;-64
2023/12/30 04:26:01;;;;;;;1.60;1.00;;;10.80;99.90;;;10.93;85.74;100500.00;4869781;28;24439;-65
2023/12/30 04:28:23;;;;;;;1.10;1.00;;;10.70;99.90;;;10.97;85.54;100501.41;4873036;28;24484;-65
2023/12/30 04:30:45;;;;;;;3.00;1.10;;;10.70;99.90;;;10.98;84.69;100490.03;4865484;28;24439;-64
2023/12/30 04:33:07;;;;;;;1.10;1.00;;;10.70;99.90;;;11.00;85.17;100489.91;4841427;28;24444;-65
2023/12/30 04:35:29;;;;;;;1.40;1.20;;;10.80;99.90;;;11.01;84.47;100494.22;4865970;28;24547;-65
2023/12/30 04:37:51;;;;;;;1.10;1.00;;;10.80;99.90;;;10.94;84.69;100499.88;4846432;28;24906;-65
2023/12/30 04:40:13;;;;;;;1.00;1.00;;;10.80;99.90;;;10.86;85.94;100491.78;4861022;28;25054;-65
2023/12/30 04:42:35;;;;;;;2.03;1.10;;;10.80;99.90;;;10.85;86.33;100497.97;4876904;28;24549;-65
2023/12/30 04:44:57;;;;;;;1.10;1.00;;;10.70;99.90;;;10.85;86.99;100513.63;4876537;28;24420;-64
2023/12/30 04:47:19;;;;;;;3.17;1.10;;;10.70;99.90;;;10.77;87.20;100496.88;4858604;28;25015;-64
2023/12/30 04:49:41;;;;;;;1.27;0.97;;;10.70;99.90;;;10.81;87.47;100500.91;4848572;28;24543;-65
2023/12/30 04:52:03;;;;;;;1.00;1.00;;;10.70;99.90;;;10.75;87.83;100494.38;4861586;28;24859;-65
2023/12/30 04:54:25;;;;;;;1.48;1.15;;;10.60;99.90;;;10.69;87.67;100494.81;4871880;28;24440;-65
2023/12/30 04:56:47;;;;;;;1.60;1.10;;;10.60;99.90;;;10.71;86.53;100498.16;4864578;28;24539;-64
2023/12/30 04:59:09;;;;;;;2.80;1.17;;;10.60;99.90;;;10.69;86.90;100505.25;4850712;28;24530;-65
2023/12/30 05:01:31;;;;;;;1.10;1.00;;;10.50;99.90;;;10.67;86.81;100503.72;4863331;28;24436;-64
2023/12/30 05:03:54;;;;;;;1.30;1.20;;;10.50;99.90;;;10.69;86.52;100494.81;4850520;28;24427;-65
2023/12/30 05:06:21;;;;;;;1.52;1.10;;;10.50;99.90;;;10.53;87.15;100493.47;4867654;28;24974;-64
2023/12/30 05:08:43;;;;;;;1.40;1.20;;;10.40;99.90;;;10.60;87.15;100505.97;4875219;28;24490;-64
2023/12/30 05:11:06;;;;;;;1.80;1.00;;;10.50;99.90;;;10.66;87.04;100505.50;4865192;28;24517;-65
2023/12/30 05:13:28;;;;;;;2.00;1.10;;;10.50;99.90;;;10.67;86.69;100511.53;4841813;28;24447;-63
2023/12/30 05:15:50;;;;;;;2.78;1.27;;;10.50;99.90;;;10.70;86.01;100517.38;4872348;28;24454;-64
2023/12/30 05:18:12;;;;;;;2.30;1.20;;;10.50;99.90;;;10.74;86.65;100516.19;4873273;28;24498;-63
2023/12/30 05:20:34;;;;;;;2.63;1.23;;;10.50;99.90;;;10.79;86.35;100516.69;4858820;28;24444;-66
2023/12/30 05:23:03;;;;;;;3.10;1.40;;;10.50;99.90;;;10.83;85.50;100515.53;4857677;28;24520;-65
2023/12/30 05:25:25;;;;;;;1.10;1.10;;;10.60;99.90;;;10.89;84.69;100509.00;4868764;28;24514;-66
2023/12/30 05:27:47;;;;;;;2.00;1.33;;;10.70;99.90;;;10.93;85.12;100508.66;4843077;28;24812;-66
2023/12/30 05:30:09;;;;;;;1.77;1.30;;;10.70;99.90;;;10.89;84.15;100517.66;4856947;28;24444;-66
2023/12/30 05:32:31;;;;;;;2.50;1.40;;;10.70;99.90;;;10.93;84.52;100526.09;4875728;28;20816;-66
2023/12/30 05:34:53;;;;;;;1.70;1.13;;;10.70;99.90;;;10.94;84.09;100530.38;4853967;28;25058;-65
2023/12/30 05:37:16;;;;;;;1.95;1.10;;;10.70;99.90;;;10.98;84.55;100530.97;4876175;28;24447;-65
2023/12/30 05:39:38;;;;;;;3.80;1.10;;;10.70;99.90;;;11.01;83.62;100525.53;4874267;28;24451;-63
2023/12/30 05:42:00;;;;;;;3.75;1.33;;;10.80;99.90;;;11.01;83.89;100525.53;4872459;28;24987;-65
2023/12/30 05:44:22;;;;;;;3.05;1.02;;;10.80;99.90;;;11.02;83.69;100525.41;4875740;28;24855;-65
2023/12/30 05:46:44;;;;;;;1.27;1.17;;;10.80;99.90;;;11.05;82.90;100516.53;4838700;28;24551;-65
2023/12/30 05:49:05;;;;;;;1.70;1.20;;;10.80;99.90;;;11.04;83.67;100533.97;4875910;28;24438;-66
2023/12/30 05:51:28;;;;;;;1.20;1.10;;;10.80;99.90;;;11.04;83.90;100527.91;4830664;28;24508;-65
2023/12/30 05:53:50;;;;;;;2.00;1.10;;;10.80;99.90;;;11.05;83.29;100529.56;4863952;28;24518;-66
2023/12/30 05:56:12;;;;;;;1.48;1.38;;;10.80;99.90;;;11.07;83.15;100540.72;4832804;28;24461;-66
2023/12/30 05:58:37;;;;;;;2.40;1.20;;;10.80;99.90;;;11.07;82.94;100532.91;4822639;28;24527;-66
2023/12/30 06:01:00;;;;;;;1.75;1.20;;;10.80;99.90;;;11.01;82.97;100539.41;4855442;28;24881;-66
2023/12/30 06:03:22;;;;;;;2.72;1.30;;;10.80;99.90;;;10.99;83.75;100540.47;4874016;28;25045;-64
2023/12/30 06:05:44;;;;;;;3.28;1.40;;;10.80;99.90;;;10.98;83.23;100546.63;4842147;28;24440;-65
2023/12/30 06:08:06;;;;;;;1.80;1.10;;;10.70;99.90;;;10.96;83.06;100543.31;4853160;28;24514;-65
2023/12/30 06:10:28;;;;;;;2.67;1.00;;;10.70;99.90;;;10.89;83.61;100538.56;4850629;28;24528;-65
2023/12/30 06:12:50;;;;;;;2.15;1.15;;;10.70;99.90;;;10.87;83.34;100545.66;4864274;28;24440;-65
2023/12/30 06:15:12;;;;;;;1.40;1.30;;;10.70;99.90;;;10.79;85.08;100540.19;4870047;28;24505;-66
2023/12/30 06:17:34;;;;;;;3.50;1.10;;;10.60;99.90;;;10.75;84.96;100549.16;4863516;28;25005;-65
2023/12/30 06:19:56;;;;;;;2.72;1.20;;;10.60;99.90;;;10.71;86.18;100547.72;4872182;28;24984;-66
2023/12/30 06:22:18;;;;;;;2.30;1.30;;;10.50;99.90;;;10.66;85.92;100552.47;4863828;28;24589;-66
2023/12/30 06:24:40;;;;;;;1.40;1.00;;;10.50;99.90;;;10.64;86.91;100549.16;4874678;28;25180;-66
2023/12/30 06:27:02;;;;;;;1.33;1.13;;;10.50;99.90;;;10.62;87.20;100556.25;4848696;28;24498;-66
2023/12/30 06:29:26;;;;;;;1.20;1.10;;;10.40;99.90;;;10.59;87.70;100555.63;4856961;28;24432;-66
2023/12/30 06:31:52;;;;;;;1.40;1.30;;;10.40;99.90;;;10.55;87.00;100559.41;4855643;28;24458;-66
2023/12/30 06:34:14;;;;;;;1.63;1.20;;;10.40;99.90;;;10.54;87.38;100562.97;4856809;28;24440;-66
2023/12/30 06:36:36;;;;;;;1.67;1.23;;;10.30;99.90;;;10.48;88.72;100559.03;4840219;28;24819;-66
2023/12/30 06:39:00;;;;;;;1.80;1.30;;;10.30;99.90;;;10.47;88.48;100557.38;4856428;28;24424;-65
2023/12/30 06:41:22;;;;;;;1.20;1.10;;;10.30;99.90;;;10.45;88.65;100563.63;4861959;28;24490;-66
2023/12/30 06:43:45;;;;;;;2.70;1.10;;;10.30;99.90;;;10.44;88.63;100561.97;4859411;28;24861;-66
2023/12/30 06:46:07;;;;;;;2.08;1.20;;;10.20;99.90;;;10.42;89.44;100564.69;4841085;28;24455;-65
2023/12/30 06:48:29;;;;;;;2.75;1.25;;;10.20;99.90;;;10.38;89.50;100565.84;4855301;28;24451;-65
2023/12/30 06:50:52;;;;;;;2.77;1.20;;;10.20;99.90;;;10.39;89.03;100570.13;4869467;28;24533;-66
2023/12/30 06:53:13;;;;;;;2.33;1.50;;;10.20;99.90;;;10.46;88.92;100565.28;4867581;28;24527;-65
2023/12/30 06:55:35;;;;;;;1.30;1.20;;;10.30;99.90;;;10.45;89.44;100571.47;4848439;28;20785;-65
2023/12/30 06:58:08;;;;;;;2.83;1.20;;;10.20;99.90;;;10.50;88.99;100575.41;4844426;28;24455;-65
2023/12/30 07:00:30;;;;;;;1.30;1.10;;;10.30;99.90;;;10.51;89.55;100569.25;4873689;28;24518;-66
2023/12/30 07:02:53;;;;;;;1.50;1.40;;;10.30;99.90;;;10.56;88.27;100572.34;4870970;28;24944;-65
2023/12/30 07:05:15;;;;;;;1.40;1.30;;;10.30;99.90;;;10.60;88.88;100573.81;4865423;28;24462;-65
2023/12/30 07:07:37;;;;;;;1.30;1.10;;;10.30;99.90;;;10.66;88.58;100578.56;4841866;28;24479;-66
2023/12/30 07:09:59;;;;;;;2.75;1.20;;;10.40;99.90;;;10.69;88.05;100578.31;4845221;28;24481;-65
2023/12/30 07:12:21;;;;;;;2.05;1.42;;;10.50;99.90;;;10.74;87.47;100581.44;4848446;28;24444;-64
2023/12/30 07:14:43;;;;;;;1.80;1.10;;;10.50;99.90;;;10.77;87.89;100589.06;4866704;28;24526;-65
2023/12/30 07:17:05;;;;;;;2.10;1.45;;;10.50;99.90;;;10.79;87.55;100588.94;4848197;28;24452;-65
2023/12/30 07:19:27;;;;;;;1.83;1.33;;;10.50;99.90;;;10.80;86.70;100590.59;4847411;28;24424;-65
2023/12/30 07:21:49;;;;;;;2.03;1.03;;;10.60;99.90;;;10.79;87.33;100589.78;4851513;28;25046;-66
2023/12/30 07:24:11;;;;;;;1.40;1.20;;;10.50;99.90;;;10.83;87.15;100591.22;4862720;28;25041;-65
2023/12/30 07:26:33;;;;;;;2.35;1.40;;;10.60;99.90;;;10.85;86.80;100589.31;4862710;28;24499;-65
2023/12/30 07:28:55;;;;;;;1.50;1.40;;;10.60;99.90;;;10.85;87.44;100591.94;4866141;28;24438;-66
2023/12/30 07:31:17;;;;;;;1.40;1.30;;;10.60;99.90;;;10.85;86.53;100598.94;4867858;28;25016;-65
2023/12/30 07:33:39;;;;;;;3.63;1.50;;;10.60;99.90;;;10.83;87.85;100591.22;4853786;28;24466;-65
2023/12/30 07:36:04;;;;;;;2.53;1.30;;;10.60;99.90;;;10.85;86.57;100604.16;4857707;28;24976;-65
2023/12/30 07:38:27;;;;;;;1.50;1.40;;;10.60;99.90;;;10.87;86.48;100600.47;4838009;28;24430;-66
2023/12/30 07:40:49;;;;;;;1.58;1.45;;;10.60;99.90;;;10.86;86.71;100606.63;4837788;28;24423;-65
2023/12/30 07:43:10;;;;;;;1.25;1.15;;;10.60;99.90;;;10.90;87.44;100596.81;4851790;28;24467;-65
2023/12/30 07:45:32;;;;;;;1.30;1.20;;;10.70;99.90;;;10.90;87.27;100608.06;4844498;28;24472;-66
2023/12/30 07:47:54;;;;;;;2.45;1.30;;;10.70;99.90;;;10.91;87.40;100609.75;4871904;28;24451;-66
2023/12/30 07:50:17;;;;;;;2.70;1.60;;;10.70;99.90;;;10.93;87.21;100607.84;4866031;28;20782;-66
2023/12/30 07:52:38;;;;;;;1.80;1.30;;;10.70;99.90;;;10.91;87.84;100599.31;4872468;28;24482;-66
2023/12/30 07:55:01;;;;;;;2.10;1.25;;;10.70;99.90;;;10.90;87.09;100608.06;4869144;28;24447;-65
2023/12/30 07:57:23;;;;;;;1.80;1.30;;;10.70;99.90;;;10.90;87.77;100608.06;4864266;28;24540;-65
2023/12/30 07:59:45;;;;;;;2.60;1.50;;;10.70;99.90;;;10.96;87.81;100601.59;4850594;28;24540;-66
2023/12/30 08:02:07;;;;;;;1.70;1.30;;;10.70;99.90;;;10.99;87.42;100605.75;4854796;28;24428;-66
2023/12/30 08:04:29;;;;;;;1.20;1.10;;;10.70;99.90;;;11.04;86.45;100614.06;4855449;28;24876;-65
2023/12/30 08:06:53;;;;;;;1.20;1.20;;;10.70;99.90;;;11.07;86.10;100609.47;4864102;28;24431;-66
2023/12/30 08:09:15;;;;;;;2.58;1.33;;;10.80;99.90;;;11.09;85.91;100612.78;4855352;28;24435;-65
2023/12/30 08:11:37;;;;;;;1.40;1.30;;;10.80;99.90;;;11.11;86.05;100618.72;4838729;28;24442;-65
2023/12/30 08:14:19;;;;;;;1.58;1.30;;;10.80;99.90;;;11.15;86.75;100621.94;4867068;28;24538;-65
2023/12/30 08:16:41;;;;;;;1.17;1.00;;;10.90;99.90;;;11.14;85.97;100626.31;4860337;28;24459;-66
2023/12/30 08:19:03;;;;;;;1.00;1.00;;;10.90;99.90;;;11.04;86.81;100612.28;4839612;28;24523;-65
2023/12/30 08:21:25;;;;;;;1.45;1.30;;;10.90;99.90;;;11.07;86.70;100611.22;4847464;28;24476;-66
2023/12/30 08:23:47;;;;;;;1.90;1.40;;;10.90;99.90;;;10.96;87.70;100616.41;4840563;28;24451;-66
2023/12/30 08:26:09;;;;;;;1.70;1.10;;;10.80;99.90;;;10.90;87.70;100620.31;4842646;28;24516;-65
2023/12/30 08:28:31;;;;;;;1.10;1.00;;;10.70;99.90;;;10.82;88.22;100620.84;4833476;28;24998;-65
2023/12/30 08:30:54;;;;;;;2.30;1.30;;;10.70;99.90;;;10.79;88.39;100622.88;4851754;28;24981;-66
2023/12/30 08:33:16;;;;;;;2.13;1.20;;;10.60;99.90;;;10.65;89.66;100609.97;4857635;28;24477;-65
2023/12/30 08:35:38;;;;;;;1.50;1.40;;;10.50;99.90;;;10.75;88.69;100622.25;4862656;28;24538;-65
2023/12/30 08:38:01;;;;;;;1.77;1.67;;;10.50;99.90;;;10.81;88.44;100623.59;4875857;28;24446;-65
2023/12/30 08:40:24;;;;;;;1.70;1.50;;;10.60;99.90;;;10.80;89.13;100627.97;4858522;28;25334;-65
2023/12/30 08:42:47;;;;;;;1.48;1.38;;;10.60;99.90;;;10.85;89.08;100617.19;4870219;28;24965;-66
2023/12/30 08:45:17;;;;;;;1.67;1.40;;;10.60;99.90;;;10.94;88.60;100624.34;4869186;28;24988;-66
2023/12/30 08:47:39;;;;;;;1.40;1.30;;;10.70;99.90;;;10.97;88.30;100631.94;4877806;28;24531;-66
2023/12/30 08:50:03;;;;;;;1.63;1.48;;;10.70;99.90;;;10.99;87.80;100635.28;4871840;28;24451;-66
2023/12/30 08:52:25;;;;;;;3.95;1.40;;;10.80;99.90;;;11.06;88.58;100640.88;4839919;28;24864;-65
2023/12/30 08:54:47;;;;;;;1.60;1.50;;;10.80;99.90;;;11.13;87.69;100642.09;4869443;28;24492;-64
2023/12/30 08:57:09;;;;;;;1.90;1.50;;;10.90;99.90;;;11.25;87.93;100638.56;4874685;28;24486;-66
2023/12/30 08:59:32;;;;;;;1.50;1.40;;;10.90;99.90;;;11.34;87.65;100637.91;4853209;28;24434;-66
2023/12/30 09:01:53;;;;;;;2.50;1.60;;;11.00;99.90;;;11.40;86.65;100638.28;4869129;28;24945;-65
2023/12/30 09:04:16;;;;;;;2.70;1.60;;;11.10;99.90;;;11.40;86.87;100638.28;4858438;28;24468;-65
2023/12/30 09:06:38;;;;;;;2.08;1.40;;;11.10;99.90;;;11.35;87.49;100634.34;4867533;28;24450;-66
2023/12/30 09:09:00;;;;;;;1.80;1.70;;;11.10;99.90;;;11.32;88.10;100639.78;4841058;28;25070;-64
2023/12/30 09:11:22;;;;;;;4.20;1.73;;;11.10;99.90;;;11.40;87.67;100642.66;4869517;28;25062;-65
2023/12/30 09:13:45;;;;;;;1.70;1.30;;;11.10;99.90;;;11.46;87.91;100648.25;4864621;28;25170;-66
2023/12/30 09:16:07;;;;;;;3.20;1.50;;;11.20;99.90;;;11.44;87.03;100650.16;4854892;28;25056;-65
2023/12/30 09:18:29;;;;;;;1.40;1.30;;;11.20;99.90;;;11.42;87.22;100640.75;4852383;28;24455;-66
2023/12/30 09:20:51;;;;;;;1.50;1.40;;;11.20;99.90;;;11.39;87.34;100643.63;4863967;28;24493;-63
2023/12/30 09:23:13;;;;;;;1.87;1.20;;;11.20;99.90;;;11.31;87.65;100645.94;4866531;28;24688;-66
2023/12/30 09:25:35;;;;;;;2.00;1.10;;;11.10;99.90;;;11.33;86.78;100638.84;4868409;28;24442;-66
2023/12/30 09:27:57;;;;;;;1.52;1.20;;;11.10;99.90;;;11.33;87.36;100649.31;4870298;28;24428;-65
2023/12/30 09:30:19;;;;;;;2.00;1.43;;;11.10;99.90;;;11.36;86.84;100651.66;4858520;28;24489;-66
2023/12/30 09:32:41;;;;;;;1.48;1.30;;;11.10;99.90;;;11.37;87.22;100658.56;4846807;28;24458;-65
2023/12/30 09:35:05;;;;;;;1.40;1.30;;;11.10;99.90;;;11.32;86.56;100651.09;4839972;28;24505;-65
2023/12/30 09:37:27;;;;;;;1.40;1.30;;;11.10;99.90;;;11.33;86.80;100655.34;4850063;28;24456;-66
2023/12/30 09:39:49;;;;;;;1.60;1.20;;;11.10;99.90;;;11.38;87.08;100661.06;4863854;28;24502;-65
2023/12/30 09:42:11;;;;;;;2.83;1.10;;;11.10;99.90;;;11.40;86.89;100674.00;4864072;28;24565;-66
2023/12/30 09:44:34;;;;;;;1.50;1.10;;;11.10;99.90;;;11.37;87.05;100677.69;4875420;28;24525;-66
2023/12/30 09:46:57;;;;;;;1.20;1.20;;;11.10;99.90;;;11.46;86.83;100665.72;4870892;28;24450;-65
2023/12/30 09:49:20;;;;;;;1.50;1.40;;;11.20;99.90;;;11.50;86.26;100665.38;4862855;28;24440;-65
2023/12/30 09:51:42;;;;;;;3.55;1.23;;;11.20;99.90;;;11.46;86.76;100661.31;4858825;28;24505;-66